Airfield :
LOGIN :

Register | Disclaimer

   EN    FR    IT 

 










Legend :    VFR   Marginal VFR   IFR   Intensive IFR   Very Intensive IFR
Visi :
Ceiling :
>= 8 km
>= 3000ft
5 to 8 km
1000 to 3000 ft
1500m to 5 km
500 to 1000 ft
800 to 1500m
200 to 500 ft
< 800m
< 200 ft
Symbols :   Thunderstorms  Fog  Heavy snow  Heavy precipitations  Wind > 20 kt
SIGMETs :     Misc.  Thunderstorms  Icing  Turbulence  Mountain Waves  Volcanic Ashes






- Airport Elevation : 45 ft
- IATA code : CEG


EGNR - Hawarden Chester

CURRENT METAR :
  • 191120Z 27004KT 240V310 9999 -SHRA BKN024 BKN038 17/12 Q1015

EXPIRED METARs :
  • 191050Z VRB03KT 9999 SCT023 BKN041 17/12 Q1015
  • 191020Z VRB03KT 9999 SCT026 BKN041 17/12 Q1015
  • 190950Z 15004KT 110V180 9999 FEW032 BKN043 17/12 Q1014
  • 190920Z 14005KT 9999 FEW037 BKN043 16/12 Q1014
  • 190850Z 14004KT 9999 SCT042 17/12 Q1014

TAF TAF EGNR
Valid from the 19 at 09:00 until the 19 at 18:00 UTC


190758Z 1909/1918 VRB03KT 9999 FEW025
BECMG 1912/1915 31010KT
TEMPO 1912/1917 8000 -SHRA
PROB30
TEMPO 1913/1917 4000 SHRA BKN014



MET'MAP, your aeronautical weather chart ! - Copyright ORBIFLY December 2007 - Disclaimer

ORBIFLY MET'MAP TEAM :

Programming & Development : Alexandra Zaïnal
Concept & original design : Baudouin d'Aumeries
Assistance for programming : Marc-Olivier Méhu
Technical & hardware support : Manuel Goepfert

Contact : metmap@orbifly.com




SOURCES & CREDITS :

   NOAA